METAR Data
IDs: Format: Raw Decoded Include TAF

Data at: 0736 UTC 03 Aug 2021

KHJO 030653Z AUTO 33007KT 10SM CLR 26/13 A2997 RMK AO2 SLP148 T02610133
KHJO 030553Z AUTO 32009KT 10SM CLR 28/14 A2996 RMK AO2 SLP146 T02780139 10389 20278 51014
KHJO 030453Z AUTO 31009KT 10SM CLR 29/14 A2996 RMK AO2 SLP145 T02940144
KHJO 030353Z AUTO 30005KT 10SM CLR 31/13 A2994 RMK AO2 SLP137 T03110128
KHJO 030253Z AUTO 32008KT 10SM CLR 33/14 A2992 RMK AO2 SLP132 T03330139 55004
KHJO 030153Z AUTO 31010KT 10SM CLR 36/13 A2992 RMK AO2 SLP130 T03610128
KHJO 030053Z AUTO 34007KT 10SM CLR 38/09 A2992 RMK AO2 SLP132 T03780094
KHJO 022353Z AUTO VRB06KT 10SM CLR 38/09 A2993 RMK AO2 SLP136 T03830094 10383 20283 56021
KHJO 022328Z AUTO 31007KT 280V350 8SM CLR 38/10 A2994 RMK AO2 T03780100
KHJO 022312Z AUTO 35007KT 2 1/2SM HZ FEW002 38/12 A2995 RMK AO2 T03780117
KHJO 022253Z AUTO 32008KT 10SM CLR 38/11 A2995 RMK AO2 SLP142 T03780111
KHJO 022153Z AUTO 32006KT 10SM CLR 37/11 A2998 RMK AO2 SLP151 T03670106
KHJO 022053Z AUTO VRB04KT 10SM CLR 35/12 A3000 RMK AO2 SLP157 T03500117 58023
KHJO 021953Z AUTO 32004KT 10SM CLR 33/13 A3002 RMK AO2 SLP166 T03280128
KHJO 021853Z AUTO 29005KT 10SM CLR 31/13 A3005 RMK AO2 SLP174 T03060133
KHJO 021753Z AUTO 30004KT 10SM CLR 28/13 A3006 RMK AO2 SLP180 T02830133 10283 20178 58006
KHJO 021653Z AUTO VRB04KT 10SM CLR 26/13 A3007 RMK AO2 SLP182 T02560128
KHJO 021553Z AUTO VRB03KT 10SM CLR 23/13 A3008 RMK AO2 SLP186 T02280128
KHJO 021453Z AUTO 33006KT 10SM CLR 21/13 A3008 RMK AO2 SLP186 T02110128 51018
KHJO 021353Z AUTO 32008KT 10SM CLR 19/13 A3007 RMK AO2 SLP181 T01890128
KHJO 021253Z AUTO 30006KT 10SM CLR 19/13 A3004 RMK AO2 SLP173 T01890133
KHJO 021153Z AUTO 31006KT 10SM CLR 21/13 A3003 RMK AO2 SLP167 T02060133 10294 20206 53010
KHJO 021053Z AUTO 32008KT 10SM CLR 21/13 A3001 RMK AO2 SLP162 T02110133
KHJO 020953Z AUTO 32011KT 10SM CLR 23/13 A3000 RMK AO2 SLP158 T02280133
KHJO 020853Z AUTO 30010KT 10SM CLR 24/14 A3000 RMK AO2 SLP157 T02390139 51010
KHJO 020753Z AUTO 29006KT 10SM CLR 26/15 A3000 RMK AO2 SLP157 T02560150 404170189
KHJO 020653Z AUTO 32008KT 10SM CLR 27/15 A2999 RMK AO2 SLP154 T02670150
KHJO 020553Z AUTO 31009KT 10SM CLR 29/16 A2997 RMK AO2 SLP146 T02940156 10411 20294 51015
KHJO 020453Z AUTO 28009KT 10SM CLR 32/06 A2996 RMK AO2 SLP144 T03220061
KHJO 020353Z AUTO 25007KT 10SM CLR 33/02 A2993 RMK AO2 SLP136 T03280022
KHJO 020253Z AUTO 26007G15KT 10SM CLR 36/02 A2992 RMK AO2 SLP132 T03610022 53004
KHJO 020153Z AUTO 00000KT 10SM CLR 39/13 A2990 RMK AO2 SLP124 T03890128
KHJO 020053Z AUTO 07005KT 10SM CLR 41/13 A2990 RMK AO2 SLP124 T04060128
KHJO 012353Z AUTO 03004KT 10SM CLR 41/12 A2991 RMK AO2 SLP127 T04060122 10417 20317 56018
KHJO 012253Z AUTO 34005KT 10SM CLR 41/10 A2992 RMK AO2 SLP132 T04060100
KHJO 012153Z AUTO VRB05KT 10SM CLR 39/11 A2995 RMK AO2 SLP139 T03940106
KHJO 012053Z AUTO 35004KT 10SM CLR 38/12 A2996 RMK AO2 SLP146 T03830117 58019
KHJO 011953Z AUTO 29004KT 10SM CLR 37/09 A2999 RMK AO2 SLP153 T03720089